Time;durP1;ratioP1;P1;durP2;ratioP2;P2;SDS_P1;SDS_P2;PMS_P1;PMS_P2;Temp;Humidity;BMP_temperature;BMP_pressure;BME280_temperature;BME280_humidity;BME280_pressure;Samples;Min_cycle;Max_cycle;Signal;HPM_P1;HPM_P2
2023/11/05 00:00:15;;;;;;;0.50;0.50;;;9.50;93.40;;;;;;5030627;28;20301;-81
2023/11/05 00:02:42;;;;;;;0.60;0.60;;;9.60;93.60;;;;;;5032655;28;21406;-81
2023/11/05 00:05:14;;;;;;;1.92;0.60;;;9.50;93.90;;;;;;5021333;28;20206;-82
2023/11/05 00:07:41;;;;;;;0.60;0.52;;;9.50;94.20;;;;;;5033042;28;20743;-81
2023/11/05 00:10:08;;;;;;;1.77;0.55;;;9.50;94.00;;;;;;5028534;28;20225;-81
2023/11/05 00:12:35;;;;;;;0.52;0.52;;;9.40;94.70;;;;;;5031411;28;20194;-82
2023/11/05 00:15:02;;;;;;;0.40;0.40;;;9.40;94.70;;;;;;5033690;28;20221;-81
2023/11/05 00:17:31;;;;;;;0.70;0.70;;;9.40;94.70;;;;;;5032681;28;20194;-82
2023/11/05 00:19:57;;;;;;;0.47;0.47;;;9.40;94.80;;;;;;5031642;28;20640;-82
2023/11/05 00:22:24;;;;;;;1.02;0.60;;;9.40;94.80;;;;;;5033888;28;20252;-82
2023/11/05 00:24:51;;;;;;;0.60;0.60;;;9.30;95.50;;;;;;5023430;28;20202;-81
2023/11/05 00:27:18;;;;;;;0.47;0.47;;;9.30;95.90;;;;;;5030134;28;20194;-82
2023/11/05 00:29:45;;;;;;;0.47;0.47;;;9.30;95.70;;;;;;5028968;28;20195;-81
2023/11/05 00:32:12;;;;;;;0.77;0.70;;;9.30;95.00;;;;;;5029882;28;20202;-81
2023/11/05 00:34:41;;;;;;;0.60;0.60;;;9.30;95.30;;;;;;5026867;28;20252;-81
2023/11/05 00:37:08;;;;;;;0.60;0.60;;;9.20;95.40;;;;;;5028835;28;20190;-82
2023/11/05 00:39:35;;;;;;;1.20;0.60;;;9.20;96.00;;;;;;5029448;28;20585;-81
2023/11/05 00:42:01;;;;;;;1.00;0.82;;;9.20;96.00;;;;;;5031331;28;20551;-82
2023/11/05 00:44:28;;;;;;;0.88;0.43;;;9.20;96.00;;;;;;5031307;28;20201;-82
2023/11/05 00:46:55;;;;;;;1.95;0.65;;;9.20;96.20;;;;;;5038183;28;20197;-81
2023/11/05 00:49:22;;;;;;;0.70;0.70;;;9.10;95.90;;;;;;5024609;28;20548;-81
2023/11/05 00:51:50;;;;;;;0.70;0.50;;;9.10;95.90;;;;;;5033298;28;20213;-82
2023/11/05 00:54:17;;;;;;;0.57;0.57;;;9.00;96.20;;;;;;5030053;28;20213;-81
2023/11/05 00:56:43;;;;;;;0.60;0.60;;;9.00;96.30;;;;;;5029042;28;20198;-81
2023/11/05 00:59:10;;;;;;;0.75;0.70;;;9.00;96.60;;;;;;5034684;28;20197;-81
2023/11/05 01:01:37;;;;;;;1.58;1.48;;;9.00;96.90;;;;;;5026616;28;20222;-82
2023/11/05 01:04:04;;;;;;;0.98;0.98;;;9.00;97.00;;;;;;5025919;28;20224;-81
2023/11/05 01:06:31;;;;;;;1.13;0.82;;;8.90;97.40;;;;;;5027775;28;20190;-82
2023/11/05 01:08:59;;;;;;;0.80;0.80;;;8.90;97.70;;;;;;5028816;28;20207;-81
2023/11/05 01:11:26;;;;;;;0.80;0.80;;;9.00;98.20;;;;;;5039039;28;20201;-82
2023/11/05 01:13:53;;;;;;;0.93;0.80;;;9.00;97.80;;;;;;5030416;28;20191;-81
2023/11/05 01:16:20;;;;;;;0.60;0.60;;;9.00;97.70;;;;;;5033964;28;20206;-82
2023/11/05 01:18:47;;;;;;;0.75;0.50;;;9.00;97.90;;;;;;5028666;28;20202;-82
2023/11/05 01:21:13;;;;;;;1.33;0.77;;;8.90;98.10;;;;;;5029855;28;20840;-81
2023/11/05 01:23:40;;;;;;;1.05;0.80;;;8.90;97.90;;;;;;5031989;28;20225;-81
2023/11/05 01:26:08;;;;;;;0.60;0.60;;;8.90;97.80;;;;;;5032706;28;20209;-82
2023/11/05 01:28:35;;;;;;;1.05;0.75;;;8.80;97.80;;;;;;5032407;28;20282;-81
2023/11/05 01:31:02;;;;;;;0.90;0.90;;;8.80;98.10;;;;;;5028999;28;20260;-82
2023/11/05 01:33:29;;;;;;;1.48;0.70;;;8.80;97.40;;;;;;5031324;28;20201;-81
2023/11/05 01:35:55;;;;;;;0.82;0.80;;;8.80;96.80;;;;;;5033804;28;20583;-82
2023/11/05 01:38:22;;;;;;;0.43;0.43;;;8.90;96.40;;;;;;5035198;28;20199;-81
2023/11/05 01:40:49;;;;;;;1.08;0.90;;;8.80;96.60;;;;;;5032283;28;20227;-81
2023/11/05 01:43:18;;;;;;;0.45;0.40;;;8.80;96.90;;;;;;5024778;28;20711;-81
2023/11/05 01:45:46;;;;;;;0.52;0.52;;;8.80;96.70;;;;;;5033726;28;20301;-81
2023/11/05 01:48:13;;;;;;;0.50;0.50;;;8.80;96.80;;;;;;5029511;28;20194;-81
2023/11/05 01:50:40;;;;;;;0.52;0.52;;;8.90;95.90;;;;;;5032759;28;20202;-81
2023/11/05 01:53:08;;;;;;;0.50;0.50;;;8.80;95.90;;;;;;5032563;28;20197;-82
2023/11/05 01:55:37;;;;;;;0.50;0.50;;;8.80;95.90;;;;;;5032962;28;20199;-82
2023/11/05 01:58:04;;;;;;;0.45;0.45;;;8.80;95.90;;;;;;5042530;28;20745;-81
2023/11/05 02:00:33;;;;;;;0.98;0.60;;;8.80;95.90;;;;;;5033426;28;20566;-82
2023/11/05 02:02:59;;;;;;;0.95;0.60;;;8.80;95.90;;;;;;5025208;28;20248;-82
2023/11/05 02:05:26;;;;;;;0.50;0.50;;;8.80;95.90;;;;;;5032596;28;20195;-81
2023/11/05 02:07:55;;;;;;;0.60;0.60;;;8.80;95.90;;;;;;5033868;28;20213;-82
2023/11/05 02:10:22;;;;;;;0.50;0.50;;;8.80;95.90;;;;;;5033650;28;20199;-81
2023/11/05 02:12:56;;;;;;;0.80;0.80;;;8.80;95.90;;;;;;5031090;28;20203;-82
2023/11/05 02:15:25;;;;;;;0.52;0.52;;;8.80;95.90;;;;;;5032245;28;20187;-82
2023/11/05 02:17:54;;;;;;;0.40;0.40;;;8.90;95.90;;;;;;5034847;28;20196;-82
2023/11/05 02:20:22;;;;;;;0.40;0.40;;;8.80;95.40;;;;;;5029231;28;20214;-81
2023/11/05 02:22:50;;;;;;;0.50;0.40;;;8.80;95.30;;;;;;5033398;28;20669;-82
2023/11/05 02:25:19;;;;;;;0.50;0.50;;;8.80;95.40;;;;;;5029591;28;20203;-81
2023/11/05 02:27:49;;;;;;;0.60;0.60;;;8.80;95.00;;;;;;5034117;28;20202;-81
2023/11/05 02:30:17;;;;;;;0.40;0.40;;;8.90;95.30;;;;;;5033007;28;20203;-81
2023/11/05 02:32:44;;;;;;;0.55;0.55;;;8.80;95.90;;;;;;5030681;28;20197;-81
2023/11/05 02:35:11;;;;;;;0.40;0.40;;;8.80;95.50;;;;;;5034076;28;20187;-81
2023/11/05 02:37:38;;;;;;;0.73;0.60;;;8.80;95.40;;;;;;5031032;28;20229;-81
2023/11/05 02:40:07;;;;;;;0.70;0.47;;;8.80;95.20;;;;;;5032252;28;20704;-81
2023/11/05 02:42:35;;;;;;;0.50;0.50;;;8.70;95.80;;;;;;5033608;28;20197;-82
2023/11/05 02:45:03;;;;;;;0.52;0.50;;;8.70;95.60;;;;;;5031328;28;20260;-81
2023/11/05 02:47:30;;;;;;;0.55;0.55;;;8.70;95.70;;;;;;5034825;28;20209;-82
2023/11/05 02:49:57;;;;;;;0.52;0.45;;;8.70;95.90;;;;;;5032474;28;20194;-82
2023/11/05 02:52:24;;;;;;;0.95;0.50;;;8.70;95.80;;;;;;5032393;28;20229;-82
2023/11/05 02:54:51;;;;;;;0.40;0.40;;;8.70;95.90;;;;;;5032832;28;20282;-82
2023/11/05 02:57:20;;;;;;;2.28;0.52;;;8.60;95.80;;;;;;5035831;28;20187;-81
2023/11/05 02:59:48;;;;;;;0.60;0.60;;;8.60;95.80;;;;;;5037993;28;20187;-81
2023/11/05 03:02:15;;;;;;;0.50;0.50;;;8.60;95.80;;;;;;5032184;28;20226;-81
2023/11/05 03:04:42;;;;;;;1.10;0.60;;;8.50;95.80;;;;;;5031675;28;20190;-81
2023/11/05 03:07:09;;;;;;;1.70;0.50;;;8.50;95.80;;;;;;5034228;28;20205;-81
2023/11/05 03:09:36;;;;;;;0.50;0.50;;;8.50;95.80;;;;;;5032546;28;20210;-81
2023/11/05 03:12:04;;;;;;;0.73;0.73;;;8.50;95.80;;;;;;5030625;28;20203;-83
2023/11/05 03:14:31;;;;;;;0.57;0.57;;;8.40;95.80;;;;;;5029960;28;20191;-82
2023/11/05 03:17:00;;;;;;;1.27;1.08;;;8.30;96.00;;;;;;5020697;28;20206;-82
2023/11/05 03:19:27;;;;;;;0.50;0.50;;;8.30;96.40;;;;;;5030712;28;20622;-82
2023/11/05 03:21:54;;;;;;;0.40;0.40;;;8.20;96.20;;;;;;5023977;28;20225;-82
2023/11/05 03:24:21;;;;;;;0.60;0.60;;;8.20;96.40;;;;;;5031810;28;20187;-81
2023/11/05 03:26:48;;;;;;;0.55;0.55;;;8.10;96.90;;;;;;5027325;28;20566;-82
2023/11/05 03:29:15;;;;;;;1.13;0.60;;;8.10;96.90;;;;;;5032410;28;20202;-82
2023/11/05 03:31:43;;;;;;;1.10;0.50;;;8.00;96.90;;;;;;5028081;28;20198;-82
2023/11/05 03:34:11;;;;;;;1.10;0.47;;;7.90;97.00;;;;;;5030638;28;20194;-82
2023/11/05 03:36:38;;;;;;;0.70;0.70;;;7.90;97.20;;;;;;5028926;28;20198;-81
2023/11/05 03:39:05;;;;;;;1.40;0.65;;;7.90;97.20;;;;;;5033367;28;20190;-81
2023/11/05 03:41:32;;;;;;;0.88;0.60;;;7.80;97.50;;;;;;5035352;28;20210;-82
2023/11/05 03:43:58;;;;;;;0.50;0.50;;;7.80;97.60;;;;;;5030130;28;20194;-82
2023/11/05 03:46:25;;;;;;;0.70;0.70;;;7.80;97.30;;;;;;5030202;28;20194;-81
2023/11/05 03:48:52;;;;;;;1.30;0.50;;;7.80;97.30;;;;;;5033723;28;20272;-81
2023/11/05 03:51:20;;;;;;;0.40;0.40;;;7.80;97.20;;;;;;5028590;28;20268;-82
2023/11/05 03:53:47;;;;;;;1.02;0.70;;;7.70;97.40;;;;;;5030309;28;20210;-82
2023/11/05 03:56:16;;;;;;;0.50;0.50;;;7.70;97.70;;;;;;5029766;28;20186;-81
2023/11/05 03:58:43;;;;;;;0.50;0.50;;;7.70;97.60;;;;;;5029721;28;20197;-82
2023/11/05 04:01:16;;;;;;;0.55;0.55;;;7.80;97.80;;;;;;5033773;28;20225;-81
2023/11/05 04:03:43;;;;;;;0.68;0.68;;;7.70;97.80;;;;;;5028468;28;20636;-81
2023/11/05 04:06:10;;;;;;;0.40;0.40;;;7.80;97.80;;;;;;5029837;28;20195;-81
2023/11/05 04:08:38;;;;;;;0.50;0.50;;;7.80;97.30;;;;;;5027744;28;20206;-82
2023/11/05 04:11:05;;;;;;;0.43;0.43;;;7.80;97.50;;;;;;5030809;28;20677;-81
2023/11/05 04:13:32;;;;;;;0.47;0.47;;;7.80;97.30;;;;;;5030388;28;20627;-82
2023/11/05 04:15:59;;;;;;;0.40;0.40;;;7.70;97.30;;;;;;5029490;28;20249;-81
2023/11/05 04:18:26;;;;;;;0.50;0.50;;;7.70;97.60;;;;;;5029539;28;20197;-82
2023/11/05 04:20:53;;;;;;;0.60;0.60;;;7.60;98.00;;;;;;5030978;28;20218;-81
2023/11/05 04:23:20;;;;;;;0.50;0.50;;;7.60;98.00;;;;;;5030556;28;20200;-81
2023/11/05 04:25:48;;;;;;;0.50;0.50;;;7.70;97.40;;;;;;5030413;28;20274;-82
2023/11/05 04:28:15;;;;;;;0.50;0.50;;;7.80;97.40;;;;;;5026646;28;20650;-81
2023/11/05 04:30:42;;;;;;;0.55;0.55;;;7.70;97.50;;;;;;5061782;28;20244;-81
2023/11/05 04:33:09;;;;;;;0.50;0.50;;;7.60;97.70;;;;;;5027629;28;20205;-81
2023/11/05 04:35:36;;;;;;;0.40;0.40;;;7.50;97.80;;;;;;5022224;28;20253;-82
2023/11/05 04:38:02;;;;;;;0.40;0.40;;;7.50;98.20;;;;;;5029605;28;20218;-81
2023/11/05 04:40:30;;;;;;;0.32;0.32;;;7.40;98.20;;;;;;5030475;28;20198;-82
2023/11/05 04:42:59;;;;;;;0.50;0.50;;;7.40;98.20;;;;;;5031530;28;20531;-81
2023/11/05 04:45:26;;;;;;;0.32;0.32;;;7.30;98.50;;;;;;5037661;28;20205;-81
2023/11/05 04:47:53;;;;;;;0.50;0.50;;;7.30;98.90;;;;;;5034376;28;20745;-81
2023/11/05 04:50:19;;;;;;;0.40;0.40;;;7.30;99.00;;;;;;5032799;28;20191;-81
2023/11/05 04:52:46;;;;;;;0.70;0.70;;;7.20;99.00;;;;;;5035863;28;20241;-81
2023/11/05 04:55:13;;;;;;;0.40;0.40;;;7.20;99.40;;;;;;5035868;28;20197;-81
2023/11/05 04:57:40;;;;;;;0.52;0.50;;;7.10;99.50;;;;;;5034110;28;20203;-81
2023/11/05 05:00:12;;;;;;;1.58;0.40;;;7.10;99.70;;;;;;5029831;28;20640;-81
2023/11/05 05:02:39;;;;;;;0.50;0.50;;;7.00;99.40;;;;;;5036777;28;20237;-82
2023/11/05 05:05:06;;;;;;;0.60;0.60;;;7.10;99.20;;;;;;5032950;28;20206;-81
2023/11/05 05:07:33;;;;;;;0.55;0.50;;;7.10;99.20;;;;;;5035488;28;20194;-82
2023/11/05 05:10:00;;;;;;;0.40;0.40;;;7.10;99.10;;;;;;5030064;28;20191;-81
2023/11/05 05:12:28;;;;;;;0.55;0.55;;;7.10;99.00;;;;;;5032021;28;20199;-81
2023/11/05 05:14:55;;;;;;;0.35;0.35;;;7.10;98.90;;;;;;5033028;28;20190;-81
2023/11/05 05:17:23;;;;;;;0.60;0.60;;;7.00;99.00;;;;;;5034770;28;20194;-81
2023/11/05 05:19:50;;;;;;;0.40;0.40;;;7.00;99.00;;;;;;5035438;28;20190;-82
2023/11/05 05:22:17;;;;;;;0.85;0.85;;;7.00;99.40;;;;;;5033385;28;20547;-81
2023/11/05 05:24:44;;;;;;;0.60;0.50;;;6.90;99.50;;;;;;5034212;28;20196;-81
2023/11/05 05:27:11;;;;;;;0.47;0.47;;;6.90;99.70;;;;;;5033714;28;20632;-81
2023/11/05 05:29:38;;;;;;;0.40;0.40;;;6.90;99.70;;;;;;5034469;28;20194;-81
2023/11/05 05:32:05;;;;;;;0.85;0.68;;;6.70;99.90;;;;;;5033194;28;20614;-81
2023/11/05 05:34:34;;;;;;;0.40;0.40;;;6.70;99.90;;;;;;5029994;28;20194;-82
2023/11/05 05:37:00;;;;;;;0.50;0.50;;;6.80;99.90;;;;;;5029341;28;20204;-81
2023/11/05 05:39:27;;;;;;;0.38;0.38;;;6.80;99.90;;;;;;5028629;28;20190;-81
2023/11/05 05:41:54;;;;;;;1.30;0.57;;;6.80;99.90;;;;;;5031268;28;20223;-82
2023/11/05 05:44:21;;;;;;;0.60;0.40;;;6.80;99.90;;;;;;5029681;28;20210;-81
2023/11/05 05:46:48;;;;;;;0.73;0.50;;;6.90;99.90;;;;;;5034501;28;20206;-81
2023/11/05 05:49:15;;;;;;;0.40;0.40;;;6.90;99.90;;;;;;5039432;28;20273;-82
2023/11/05 05:51:43;;;;;;;0.40;0.40;;;6.90;99.90;;;;;;5030428;28;20218;-81
2023/11/05 05:54:10;;;;;;;0.80;0.70;;;6.80;99.90;;;;;;5031403;28;20198;-83
2023/11/05 05:56:37;;;;;;;0.50;0.50;;;6.80;99.90;;;;;;5030118;28;20206;-82
2023/11/05 05:59:03;;;;;;;0.50;0.50;;;6.90;99.90;;;;;;5037182;28;20202;-82
2023/11/05 06:01:31;;;;;;;1.60;0.50;;;6.90;99.90;;;;;;5035232;28;20218;-82
2023/11/05 06:04:00;;;;;;;1.00;0.50;;;6.90;99.80;;;;;;5033469;28;20620;-83
2023/11/05 06:06:27;;;;;;;0.50;0.50;;;7.10;99.80;;;;;;5035052;28;20186;-81
2023/11/05 06:08:55;;;;;;;0.60;0.60;;;7.20;99.30;;;;;;5031436;28;20218;-82
2023/11/05 06:11:22;;;;;;;0.68;0.60;;;7.10;99.50;;;;;;5029425;28;20195;-81
2023/11/05 06:13:49;;;;;;;0.85;0.50;;;7.20;98.90;;;;;;5064426;28;20620;-82
2023/11/05 06:16:16;;;;;;;1.02;0.50;;;7.20;98.70;;;;;;5034563;28;20191;-81
2023/11/05 06:18:43;;;;;;;0.70;0.70;;;7.20;99.10;;;;;;5035963;28;20203;-82
2023/11/05 06:21:10;;;;;;;0.82;0.80;;;7.30;99.20;;;;;;5027429;28;20200;-81
2023/11/05 06:23:36;;;;;;;4.25;2.13;;;7.30;99.00;;;;;;5035025;28;20190;-82
2023/11/05 06:26:06;;;;;;;3.15;1.63;;;7.40;99.00;;;;;;5030630;28;20190;-81
2023/11/05 06:28:33;;;;;;;1.45;1.35;;;7.30;99.30;;;;;;5032699;28;20186;-83
2023/11/05 06:31:00;;;;;;;0.98;0.90;;;7.30;99.00;;;;;;5031955;28;20203;-81
2023/11/05 06:33:26;;;;;;;1.00;1.00;;;7.30;98.80;;;;;;5031847;28;20557;-82
2023/11/05 06:35:53;;;;;;;0.60;0.60;;;7.30;98.40;;;;;;5031976;28;20190;-81
2023/11/05 06:38:20;;;;;;;0.70;0.70;;;7.30;98.70;;;;;;5033564;28;20202;-81
2023/11/05 06:40:47;;;;;;;0.60;0.60;;;7.40;99.10;;;;;;5031649;28;20194;-81
2023/11/05 06:43:15;;;;;;;1.08;0.98;;;7.40;99.00;;;;;;5030668;28;20214;-82
2023/11/05 06:45:42;;;;;;;0.98;0.68;;;7.40;98.80;;;;;;5024982;28;20199;-81
2023/11/05 06:48:10;;;;;;;0.70;0.70;;;7.60;98.60;;;;;;5032301;28;20190;-81
2023/11/05 06:50:37;;;;;;;0.68;0.68;;;7.70;98.00;;;;;;5032361;28;20198;-82
2023/11/05 06:53:04;;;;;;;1.05;1.05;;;7.70;97.60;;;;;;5029526;28;20198;-81
2023/11/05 06:55:30;;;;;;;0.80;0.60;;;7.80;97.10;;;;;;5030708;28;20201;-82
2023/11/05 06:57:57;;;;;;;1.05;0.73;;;7.80;97.30;;;;;;5036990;28;20644;-82
2023/11/05 07:00:26;;;;;;;1.00;1.00;;;7.90;97.70;;;;;;5035901;28;20232;-82
2023/11/05 07:02:53;;;;;;;0.60;0.60;;;7.90;97.10;;;;;;5025039;28;20214;-83
2023/11/05 07:05:20;;;;;;;0.70;0.70;;;8.00;96.50;;;;;;5030882;28;20195;-81
2023/11/05 07:07:47;;;;;;;1.45;0.85;;;8.00;96.30;;;;;;5033035;28;20206;-82
2023/11/05 07:10:14;;;;;;;1.15;0.70;;;8.10;96.10;;;;;;5032590;28;20222;-82
2023/11/05 07:12:42;;;;;;;0.82;0.82;;;8.10;96.30;;;;;;5031615;28;20650;-81
2023/11/05 07:15:10;;;;;;;1.15;0.70;;;8.10;96.20;;;;;;5024772;28;20195;-82
2023/11/05 07:17:39;;;;;;;1.05;0.80;;;8.20;95.70;;;;;;5031468;28;20866;-81
2023/11/05 07:20:07;;;;;;;0.88;0.80;;;8.20;95.70;;;;;;5029452;28;20198;-82
2023/11/05 07:22:34;;;;;;;1.10;1.00;;;8.20;95.70;;;;;;5030745;28;20534;-81
2023/11/05 07:25:05;;;;;;;0.70;0.70;;;8.30;95.90;;;;;;5032188;28;20199;-81
2023/11/05 07:27:32;;;;;;;1.33;0.70;;;8.20;95.70;;;;;;5028143;28;20195;-83
2023/11/05 07:29:59;;;;;;;0.80;0.80;;;8.20;96.30;;;;;;5031527;28;20211;-82
2023/11/05 07:32:28;;;;;;;0.70;0.70;;;8.30;96.50;;;;;;5032411;28;20194;-82
2023/11/05 07:34:58;;;;;;;1.98;0.73;;;8.30;95.80;;;;;;5023732;28;20275;-82
2023/11/05 07:37:27;;;;;;;0.70;0.70;;;8.40;96.00;;;;;;5029665;28;20199;-82
2023/11/05 07:39:54;;;;;;;0.77;0.77;;;8.50;95.80;;;;;;5024487;28;20187;-82
2023/11/05 07:42:21;;;;;;;3.63;0.82;;;8.60;95.80;;;;;;5042462;28;20279;-82
2023/11/05 07:44:48;;;;;;;5.25;3.80;;;8.60;95.80;;;;;;5031312;28;20559;-81
2023/11/05 07:47:15;;;;;;;0.98;0.98;;;8.70;95.90;;;;;;5030860;28;20191;-81
2023/11/05 07:49:42;;;;;;;1.02;0.98;;;8.70;95.90;;;;;;5032446;28;20198;-82
2023/11/05 07:52:10;;;;;;;2.55;0.98;;;8.70;95.90;;;;;;5030491;28;20218;-82
2023/11/05 07:54:37;;;;;;;0.90;0.88;;;8.70;95.90;;;;;;5028030;28;20206;-82
2023/11/05 07:57:04;;;;;;;0.80;0.80;;;8.90;95.90;;;;;;5030630;28;20195;-84
2023/11/05 07:59:31;;;;;;;0.77;0.77;;;9.00;95.40;;;;;;5030323;28;20198;-81
2023/11/05 08:01:58;;;;;;;1.50;1.40;;;9.00;95.40;;;;;;5027687;28;20214;-82
2023/11/05 08:04:25;;;;;;;1.30;1.20;;;9.20;95.00;;;;;;5033307;28;20200;-82
2023/11/05 08:06:54;;;;;;;1.63;0.98;;;9.30;94.90;;;;;;5033754;28;20202;-81
2023/11/05 08:09:23;;;;;;;2.15;1.35;;;9.30;94.40;;;;;;5032089;28;20237;-82
2023/11/05 08:11:50;;;;;;;0.82;0.82;;;9.40;94.30;;;;;;5031020;28;20202;-83
2023/11/05 08:14:17;;;;;;;0.90;0.90;;;9.70;93.70;;;;;;5028645;28;20187;-82
2023/11/05 08:16:44;;;;;;;1.10;1.00;;;9.90;93.40;;;;;;5029801;28;20681;-82
2023/11/05 08:19:11;;;;;;;2.53;1.00;;;9.90;92.50;;;;;;5030147;28;20249;-82
2023/11/05 08:21:38;;;;;;;1.13;1.10;;;9.90;92.60;;;;;;5030534;28;20197;-82
2023/11/05 08:24:06;;;;;;;1.25;1.13;;;10.10;92.30;;;;;;5026145;28;20225;-82
2023/11/05 08:26:36;;;;;;;1.10;1.10;;;10.20;91.90;;;;;;5027383;28;20195;-85
2023/11/05 08:29:04;;;;;;;1.15;1.00;;;10.10;92.70;;;;;;5023489;28;20194;-85
2023/11/05 08:31:31;;;;;;;1.13;1.08;;;10.00;92.50;;;;;;5060305;28;20202;-82
2023/11/05 08:33:58;;;;;;;2.00;1.00;;;9.90;93.20;;;;;;5027874;28;20197;-81
2023/11/05 08:36:26;;;;;;;1.00;1.00;;;10.00;92.60;;;;;;5029090;28;20198;-81
2023/11/05 08:38:53;;;;;;;1.00;1.00;;;10.10;91.50;;;;;;5028300;28;20199;-82
2023/11/05 08:41:20;;;;;;;1.92;1.00;;;10.30;92.10;;;;;;5025804;28;20195;-81
2023/11/05 08:43:49;;;;;;;1.27;1.20;;;10.40;92.20;;;;;;5025379;28;20215;-85
2023/11/05 08:46:16;;;;;;;1.20;0.93;;;10.60;92.20;;;;;;5025083;28;20264;-87
2023/11/05 08:48:43;;;;;;;0.80;0.80;;;10.60;91.50;;;;;;5012017;28;20580;-87
2023/11/05 08:51:10;;;;;;;0.80;0.80;;;10.80;90.50;;;;;;5031536;28;20642;-87
2023/11/05 08:53:38;;;;;;;3.13;1.20;;;11.00;90.50;;;;;;5028244;28;20201;-86
2023/11/05 08:56:06;;;;;;;1.10;1.00;;;11.20;90.60;;;;;;5032985;28;20202;-87
2023/11/05 08:58:33;;;;;;;0.95;0.95;;;11.40;91.20;;;;;;5040577;28;20202;-86
2023/11/05 09:01:04;;;;;;;0.82;0.82;;;11.40;91.00;;;;;;5049922;28;20198;-86
2023/11/05 09:03:30;;;;;;;0.82;0.80;;;11.50;90.60;;;;;;5069129;28;20229;-86
2023/11/05 09:05:58;;;;;;;0.95;0.90;;;11.60;89.50;;;;;;5030181;28;20666;-86
2023/11/05 09:08:25;;;;;;;0.70;0.70;;;11.60;90.70;;;;;;5031772;28;20902;-85
2023/11/05 09:10:52;;;;;;;0.80;0.80;;;11.70;90.70;;;;;;5028990;28;20241;-85
2023/11/05 09:13:20;;;;;;;1.02;0.90;;;11.90;86.20;;;;;;5029956;28;20187;-85
2023/11/05 09:15:49;;;;;;;1.73;0.90;;;12.00;75.10;;;;;;5058497;28;20598;-86
2023/11/05 09:18:18;;;;;;;0.93;0.88;;;12.10;75.20;;;;;;5031245;28;20233;-86
2023/11/05 09:20:45;;;;;;;0.88;0.88;;;12.20;77.40;;;;;;5029115;28;20734;-86
2023/11/05 09:23:11;;;;;;;0.90;0.90;;;12.30;75.40;;;;;;5033021;28;20212;-85
2023/11/05 09:25:40;;;;;;;0.63;0.63;;;12.40;73.80;;;;;;5031001;28;20197;-85
2023/11/05 09:28:07;;;;;;;0.75;0.75;;;12.50;63.60;;;;;;5030533;28;20282;-86
2023/11/05 09:30:34;;;;;;;0.70;0.70;;;12.60;61.10;;;;;;5033000;28;20943;-86
2023/11/05 09:33:01;;;;;;;1.13;1.02;;;12.80;55.10;;;;;;5030975;28;20206;-85
2023/11/05 09:35:30;;;;;;;1.00;1.00;;;12.90;55.30;;;;;;5031073;28;20243;-89
2023/11/05 09:37:59;;;;;;;1.00;0.90;;;12.90;54.90;;;;;;5031768;28;20198;-85
2023/11/05 09:40:26;;;;;;;0.60;0.60;;;13.00;42.70;;;;;;5033048;28;20214;-84
2023/11/05 09:42:58;;;;;;;0.73;0.73;;;13.20;35.50;;;;;;5031247;28;20215;-85
2023/11/05 09:45:33;;;;;;;0.70;0.70;;;13.20;34.80;;;;;;5035900;28;20757;-85
2023/11/05 09:48:02;;;;;;;1.23;0.80;;;13.30;34.50;;;;;;5034955;28;20189;-84
2023/11/05 09:50:34;;;;;;;0.90;0.85;;;13.40;35.10;;;;;;5034770;28;20264;-84
2023/11/05 09:53:05;;;;;;;0.82;0.60;;;13.40;34.20;;;;;;5031089;28;20231;-86
2023/11/05 09:55:32;;;;;;;1.13;0.70;;;13.60;34.30;;;;;;5029951;28;20198;-84
2023/11/05 09:58:01;;;;;;;0.70;0.70;;;14.00;32.20;;;;;;5035590;28;20194;-84
2023/11/05 10:00:30;;;;;;;0.70;0.70;;;14.20;30.00;;;;;;5029327;28;20201;-84
2023/11/05 10:02:58;;;;;;;0.77;0.77;;;14.20;27.20;;;;;;5035578;28;20267;-84
2023/11/05 10:05:28;;;;;;;0.70;0.70;;;14.40;27.40;;;;;;5030442;28;20256;-84
2023/11/05 10:07:59;;;;;;;0.60;0.60;;;14.20;29.50;;;;;;5034355;28;20302;-84
2023/11/05 10:10:27;;;;;;;1.13;0.70;;;14.10;30.70;;;;;;5028709;28;20275;-84
2023/11/05 10:12:54;;;;;;;3.22;0.75;;;13.90;32.10;;;;;;5032466;28;20202;-84
2023/11/05 10:15:23;;;;;;;3.92;1.00;;;13.60;34.80;;;;;;5037130;28;20196;-84
2023/11/05 10:17:50;;;;;;;1.92;0.63;;;13.20;36.70;;;;;;5035397;28;20281;-84
2023/11/05 10:20:19;;;;;;;2.35;1.02;;;12.90;41.70;;;;;;5033013;28;20191;-84
2023/11/05 10:22:47;;;;;;;0.70;0.70;;;12.60;45.10;;;;;;5031484;28;20214;-84
2023/11/05 10:25:25;;;;;;;0.70;0.70;;;12.40;49.00;;;;;;5031580;28;20202;-83
2023/11/05 10:27:52;;;;;;;1.20;1.08;;;12.20;54.80;;;;;;5065889;28;20206;-84
2023/11/05 10:30:19;;;;;;;0.77;0.77;;;12.10;54.00;;;;;;5033512;28;20641;-84
2023/11/05 10:32:48;;;;;;;1.55;0.70;;;12.00;56.50;;;;;;5032105;28;20202;-84
2023/11/05 10:35:18;;;;;;;2.17;0.70;;;12.10;55.70;;;;;;5015166;28;21671;-83
2023/11/05 10:37:46;;;;;;;1.20;0.70;;;12.10;55.80;;;;;;5029569;28;20211;-83
2023/11/05 10:40:13;;;;;;;3.70;0.95;;;12.10;57.60;;;;;;5031910;28;20217;-83
2023/11/05 10:42:43;;;;;;;1.38;0.73;;;12.10;57.50;;;;;;5029824;28;20222;-84
2023/11/05 10:45:12;;;;;;;1.02;0.70;;;12.10;58.30;;;;;;5027679;28;20202;-84
2023/11/05 10:47:40;;;;;;;0.60;0.60;;;12.00;60.60;;;;;;5031394;28;20190;-84
2023/11/05 10:50:10;;;;;;;0.70;0.65;;;11.90;72.60;;;;;;5029989;28;20191;-83
2023/11/05 10:52:39;;;;;;;0.95;0.88;;;11.70;75.40;;;;;;5026273;28;20304;-84
2023/11/05 10:55:07;;;;;;;2.30;0.88;;;11.50;77.70;;;;;;5026318;28;20707;-84
2023/11/05 10:57:50;;;;;;;3.90;0.85;;;11.30;78.90;;;;;;5027094;28;20202;-84
2023/11/05 11:00:45;;;;;;;0.73;0.73;;;11.10;81.70;;;;;;5028824;28;20191;-83
2023/11/05 11:03:14;;;;;;;0.60;0.60;;;11.20;83.00;;;;;;5031042;28;20226;-84
2023/11/05 11:06:00;;;;;;;1.92;1.67;;;11.30;83.90;;;;;;5032903;28;20593;-83
2023/11/05 11:08:29;;;;;;;0.43;0.43;;;11.50;81.90;;;;;;5035767;28;20622;-83
2023/11/05 11:11:14;;;;;;;2.05;0.60;;;11.40;81.30;;;;;;5030299;28;20206;-84
2023/11/05 11:13:53;;;;;;;0.60;0.60;;;11.50;80.40;;;;;;5031144;28;20253;-84
2023/11/05 11:16:25;;;;;;;1.20;0.98;;;11.50;81.10;;;;;;5030297;28;20538;-83
2023/11/05 11:18:54;;;;;;;3.65;3.30;;;11.50;82.00;;;;;;5030266;28;20198;-84
2023/11/05 11:21:21;;;;;;;0.80;0.80;;;11.50;80.30;;;;;;5061773;28;20214;-83
2023/11/05 11:23:49;;;;;;;0.60;0.60;;;11.60;77.70;;;;;;5028953;28;20215;-84
2023/11/05 11:26:22;;;;;;;5.32;4.55;;;11.50;76.80;;;;;;5032119;28;20221;-83
2023/11/05 11:29:01;;;;;;;2.20;0.80;;;11.70;76.40;;;;;;5026835;28;20206;-84
2023/11/05 11:31:29;;;;;;;0.60;0.60;;;11.70;75.00;;;;;;5030619;28;20577;-84
2023/11/05 11:33:56;;;;;;;2.28;1.70;;;11.90;75.10;;;;;;5034278;28;20194;-84
2023/11/05 11:36:23;;;;;;;2.08;0.68;;;12.10;75.20;;;;;;5030642;28;20190;-84
2023/11/05 11:38:50;;;;;;;0.70;0.70;;;12.20;70.90;;;;;;5061692;28;20528;-84
2023/11/05 11:41:17;;;;;;;0.60;0.60;;;12.30;70.70;;;;;;5035145;28;20383;-84
2023/11/05 11:43:45;;;;;;;0.73;0.63;;;12.50;69.10;;;;;;5034206;28;20214;-84
2023/11/05 11:46:13;;;;;;;0.70;0.70;;;12.60;66.50;;;;;;5031733;28;20267;-84
2023/11/05 11:48:41;;;;;;;1.98;1.77;;;12.60;61.60;;;;;;5033509;28;20197;-84
2023/11/05 11:51:08;;;;;;;0.60;0.60;;;12.60;58.60;;;;;;5033379;28;20249;-84
2023/11/05 11:53:38;;;;;;;0.70;0.70;;;12.50;58.80;;;;;;5027947;28;20199;-85
2023/11/05 11:56:06;;;;;;;0.52;0.52;;;12.30;61.80;;;;;;5030914;28;20225;-88
2023/11/05 11:58:38;;;;;;;0.85;0.70;;;12.20;62.80;;;;;;5031004;28;20640;-88
2023/11/05 12:01:09;;;;;;;1.02;0.60;;;12.20;61.00;;;;;;5030326;28;20247;-85
2023/11/05 12:03:38;;;;;;;0.70;0.60;;;12.20;63.40;;;;;;5022180;28;20290;-86
2023/11/05 12:06:06;;;;;;;0.82;0.70;;;12.10;65.80;;;;;;5030573;28;20549;-84
2023/11/05 12:08:40;;;;;;;0.50;0.50;;;12.00;69.90;;;;;;5030610;28;20199;-85
2023/11/05 12:11:12;;;;;;;0.60;0.43;;;12.00;75.20;;;;;;5027168;28;20198;-85
2023/11/05 12:13:42;;;;;;;0.50;0.50;;;11.60;81.30;;;;;;5029350;28;20300;-84
2023/11/05 12:16:12;;;;;;;0.60;0.60;;;11.40;89.10;;;;;;5030191;28;20240;-82
2023/11/05 12:18:42;;;;;;;0.50;0.50;;;11.30;90.60;;;;;;5032869;28;20196;-83
2023/11/05 12:21:09;;;;;;;0.73;0.73;;;11.50;87.00;;;;;;5031062;28;20608;-84
2023/11/05 12:23:37;;;;;;;0.63;0.60;;;11.60;87.90;;;;;;5030155;28;20566;-84
2023/11/05 12:26:08;;;;;;;0.50;0.50;;;11.70;84.70;;;;;;5028279;28;20198;-83
2023/11/05 12:28:35;;;;;;;0.60;0.60;;;12.00;82.90;;;;;;5031388;28;20214;-84
2023/11/05 12:31:06;;;;;;;16.20;13.70;;;12.10;81.30;;;;;;5029076;28;20194;-84
2023/11/05 12:33:34;;;;;;;1.55;0.90;;;12.30;82.40;;;;;;5030260;28;20199;-85
2023/11/05 12:36:09;;;;;;;1.55;1.33;;;12.40;77.40;;;;;;5029350;28;20206;-84
2023/11/05 12:38:36;;;;;;;0.70;0.70;;;12.60;77.50;;;;;;5032796;28;20205;-85
2023/11/05 12:41:05;;;;;;;1.80;0.80;;;12.60;69.50;;;;;;5030926;28;20190;-84
2023/11/05 12:43:32;;;;;;;3.33;0.80;;;12.60;68.00;;;;;;5030100;28;20217;-85
2023/11/05 12:45:59;;;;;;;0.93;0.80;;;12.70;58.80;;;;;;5031809;28;20264;-85
2023/11/05 12:48:27;;;;;;;1.73;1.10;;;12.80;53.20;;;;;;5030343;28;20194;-84
2023/11/05 12:50:54;;;;;;;2.75;0.98;;;12.80;53.00;;;;;;5044083;28;20222;-84
2023/11/05 12:53:22;;;;;;;0.65;0.60;;;12.90;49.40;;;;;;5027311;28;20713;-85
2023/11/05 12:55:50;;;;;;;1.67;0.80;;;12.90;50.70;;;;;;5030596;28;20199;-84